North Island Naval Air Station-Halsey Field
KNZY : rendu visible

Aérodrome :











RETROUVEZ-NOUS SUR...

 
LOGIN :

S'inscrire | Disclaimer

   EN    FR    IT 

 









Légende :    VFR   VFR Marginal   IFR   IFR Intensif   IFR Très Intensif
Visi : 
Plafond : 
>= 8 km
>= 3000ft
5 à 8 km
1000 à 3000 ft
1500m à 5 km
500 à 1000 ft
800 à 1500m
200 à 500 ft
< 800m
< 200 ft
Symboles :   Orages  Brouillard  Fortes neiges  Fortes précipitations  Vent > 20 kt






- Altitude de l'aérodrome : 26 ft


KNZY - North Island Naval Air Station-Halsey Field

DERNIER METAR :
  • 081152Z 06004KT 9SM FEW006 BKN012 BKN034 12/10 A2997 RMK AO2 RAE47 PRESRR SLP147 P0000 60022 70044 T01220100 10128 20117 56016

METARs EXPIRÉS :
  • 081126Z 05005KT 9SM -RA FEW006 BKN015 BKN034 12/10 A2995 RMK AO2 PRESFR P0000 T01220100
  • 081052Z COR 10003KT 9SM -RA SCT006 BKN010 BKN029 12/10 A2999 RMK AO2 RAE04B51 SLP155 P0000 T01220100
  • 080952Z 06005KT 9SM -RA FEW009 SCT015 BKN065 12/09 A2998 RMK AO2 SLP151 P0003 T01220094

TAF TAF KNZY
Valide du 08 à 07h jusqu'au 09 à 07h UTC


0807/0907 28007KT 9999 VCSH FEW015 BKN030 BKN050 BKN100 640507 QNH2997INS
TEMPO 0807/0813 8000 -SHRA BR SCT010 BKN025 OVC050
FM081800 25009KT 9999 VCSH SCT030 BKN050 640507 QNH3003INS
FM090300 19009KT 9999 VCSH BKN030 BKN050 BKN080 640509 QNH3005INS T11/0813Z T17/0822Z FS30020



MET'MAP, la Météo Aéronautique d'un coup d'oeil ! - Copyright ORBIFLY Décembre 2007 - Disclaimer

ORBIFLY MET'MAP TEAM :

Programmation & Développement : Alexandra Zaïnal
Sur une idée originale de : Baudouin d'Aumeries
Assistance à la programmation : Marc-Olivier Méhu
Soutien technique & logistique : Manuel Goepfert

Contact : metmap@orbifly.com




SOURCES & CREDITS :

   NOAA       Earth
Advisory